Time;durP1;ratioP1;P1;durP2;ratioP2;P2;SDS_P1;SDS_P2;PMS_P1;PMS_P2;Temp;Humidity;BMP_temperature;BMP_pressure;BME280_temperature;BME280_humidity;BME280_pressure;Samples;Min_cycle;Max_cycle;Signal;HPM_P1;HPM_P2
2023/04/11 00:06:38;;;;;;;84.30;51.60;;;;;;;5.81;80.81;98743.35;436508;1253;99215;-41
2023/04/11 00:16:48;;;;;;;79.90;51.30;;;;;;;5.84;81.19;98731.85;436291;1253;111830;-41
2023/04/11 00:37:02;;;;;;;53.40;32.80;;;;;;;5.80;81.61;98706.48;436405;1253;99209;-41
2023/04/11 00:47:10;;;;;;;56.80;34.80;;;;;;;5.66;81.38;98695.09;436409;1247;107194;-40
2023/04/11 00:57:17;;;;;;;53.40;34.90;;;;;;;5.48;81.69;98681.96;436202;1253;99355;-41
2023/04/11 01:07:25;;;;;;;51.80;34.70;;;;;;;5.40;81.85;98674.62;436244;1247;111134;-39
2023/04/11 01:17:32;;;;;;;78.90;44.50;;;;;;;5.19;81.97;98662.81;437457;1247;106433;-40
2023/04/11 01:27:41;;;;;;;80.30;46.40;;;;;;;4.99;82.17;98662.58;436540;1253;99849;-40
2023/04/11 01:37:47;;;;;;;54.90;36.60;;;;;;;4.74;82.03;98646.11;436447;1251;109604;-41
2023/04/11 01:47:55;;;;;;;48.70;31.00;;;;;;;4.56;82.32;98641.04;436466;1251;99253;-40
2023/04/11 01:58:02;;;;;;;44.10;29.90;;;;;;;4.55;82.85;98625.16;436311;1253;110614;-42
2023/04/11 02:08:09;;;;;;;47.10;32.50;;;;;;;4.56;82.98;98613.80;436222;1254;108143;-40
2023/04/11 02:18:17;;;;;;;61.00;35.50;;;;;;;4.52;83.28;98603.27;436243;1253;98801;-40
2023/04/11 02:28:24;;;;;;;51.90;32.00;;;;;;;4.47;83.44;98583.67;436227;1247;106454;-39
2023/04/11 02:38:31;;;;;;;53.00;33.90;;;;;;;4.32;83.72;98572.96;436288;1248;99224;-41
2023/04/11 02:48:38;;;;;;;51.50;36.10;;;;;;;4.24;83.91;98564.80;436239;1247;111258;-42
2023/04/11 02:58:45;;;;;;;58.50;35.50;;;;;;;4.13;83.94;98554.21;436275;1247;107968;-40
2023/04/11 03:08:53;;;;;;;51.70;31.60;;;;;;;4.04;84.22;98542.83;436209;1253;98847;-39
2023/04/11 03:19:00;;;;;;;51.20;32.60;;;;;;;3.93;84.40;98542.95;436233;1247;108339;-39
2023/04/11 03:29:08;;;;;;;50.70;32.70;;;;;;;3.92;84.32;98545.31;436410;1251;99279;-40
2023/04/11 03:39:15;;;;;;;47.30;31.60;;;;;;;3.62;84.25;98541.15;436389;1247;111981;-40
2023/04/11 03:49:22;;;;;;;50.10;32.20;;;;;;;3.36;84.81;98516.60;436170;1253;490046;-40
2023/04/11 03:59:29;;;;;;;50.80;29.20;;;;;;;3.29;85.24;98509.30;436353;1253;99300;-40
2023/04/11 04:09:37;;;;;;;49.00;28.60;;;;;;;3.32;85.34;98503.91;436393;1253;108329;-40
2023/04/11 04:19:44;;;;;;;46.70;31.40;;;;;;;3.23;85.51;98488.45;436368;1253;99244;-41
2023/04/11 04:29:51;;;;;;;39.60;27.30;;;;;;;3.33;85.77;98484.16;436452;1253;111598;-39
2023/04/11 04:40:12;;;;;;;50.20;27.40;;;;;;;3.52;85.87;98480.28;436350;1253;108159;-40
2023/04/11 04:50:18;;;;;;;35.80;22.10;;;;;;;3.67;86.12;98465.80;436506;1248;98823;-41
2023/04/11 05:00:23;;;;;;;32.30;22.10;;;;;;;3.89;86.04;98458.33;436487;1253;107116;-41
2023/04/11 05:10:30;;;;;;;31.20;19.30;;;;;;;3.90;86.71;98442.77;436336;1252;97991;-40
2023/04/11 05:20:38;;;;;;;39.00;21.20;;;;;;;4.19;87.24;98421.95;436244;1253;111373;-39
2023/04/11 05:30:45;;;;;;;34.60;24.00;;;;;;;4.69;87.49;98405.88;436513;1247;108370;-40
2023/04/11 05:40:52;;;;;;;49.40;28.10;;;;;;;5.74;88.16;98384.60;436481;1253;99326;-41
2023/04/11 05:51:00;;;;;;;57.50;31.80;;;;;;;6.91;88.35;98371.73;436373;1252;108124;-40
2023/04/11 06:01:06;;;;;;;60.00;34.00;;;;;;;7.48;87.88;98361.34;436410;1253;99749;-41
2023/04/11 06:11:13;;;;;;;64.00;35.60;;;;;;;8.27;87.29;98359.77;436470;1251;111151;-41
2023/04/11 06:21:20;;;;;;;52.90;32.80;;;;;;;8.48;86.37;98344.36;436292;1247;107236;-40
2023/04/11 06:31:27;;;;;;;57.80;33.10;;;;;;;8.79;86.47;98339.36;436513;1251;99215;-41
2023/04/11 06:41:35;;;;;;;47.80;29.90;;;;;;;8.98;85.72;98331.85;436397;1261;108450;-40
2023/04/11 06:51:42;;;;;;;53.00;32.20;;;;;;;8.96;85.32;98315.16;436387;1258;99245;-42
2023/04/11 07:01:50;;;;;;;51.80;31.30;;;;;;;9.29;85.43;98302.77;436212;1257;113656;-41
2023/04/11 07:11:57;;;;;;;47.90;30.10;;;;;;;9.74;85.35;98305.43;436352;1261;108123;-42
2023/04/11 07:22:05;;;;;;;40.10;25.70;;;;;;;10.00;84.46;98302.17;436438;1251;99259;-41
2023/04/11 07:32:12;;;;;;;39.20;22.60;;;;;;;10.45;83.66;98297.48;436278;1248;108104;-41
2023/04/11 07:42:19;;;;;;;31.30;20.40;;;;;;;10.55;82.82;98267.83;436307;1253;99234;-42
2023/04/11 07:52:26;;;;;;;31.20;17.00;;;;;;;11.21;82.35;98226.31;436459;1251;111178;-40
2023/04/11 08:02:34;;;;;;;21.80;13.60;;;;;;;12.10;81.55;98214.84;436315;1253;108262;-41
2023/04/11 08:12:41;;;;;;;27.90;14.20;;;;;;;12.47;78.98;98205.30;436586;1251;98007;-40
2023/04/11 08:22:49;;;;;;;17.00;12.00;;;;;;;12.34;76.93;98198.36;436442;1252;108111;-41
2023/04/11 08:32:56;;;;;;;16.30;12.40;;;;;;;12.44;74.94;98182.26;436475;1253;99222;-41
2023/04/11 08:43:08;;;;;;;15.40;11.20;;;;;;;12.83;75.23;98176.08;436391;1248;112315;-42
2023/04/11 08:53:20;;;;;;;11.90;8.00;;;;;;;13.21;74.53;98161.64;436484;1247;108500;-42
2023/04/11 09:03:27;;;;;;;10.70;7.20;;;;;;;13.95;73.63;98140.00;436371;1251;99224;-41
2023/04/11 09:13:34;;;;;;;11.30;7.90;;;;;;;14.46;71.63;98125.13;436519;1254;106804;-41
2023/04/11 09:23:43;;;;;;;10.90;7.20;;;;;;;14.98;69.96;98106.80;436623;1247;98327;-41
2023/04/11 09:33:52;;;;;;;9.10;7.00;;;;;;;15.03;65.44;98087.95;436411;1253;110746;-41
2023/04/11 09:44:00;;;;;;;9.20;6.60;;;;;;;14.99;66.13;98087.05;436532;1248;107277;-41
2023/04/11 09:54:10;;;;;;;18.20;11.60;;;;;;;14.88;63.79;98073.18;436434;1251;99228;-41
2023/04/11 10:04:19;;;;;;;19.80;11.10;;;;;;;14.88;64.30;98068.24;436371;1261;108041;-41
2023/04/11 10:14:42;;;;;;;10.60;8.00;;;;;;;14.88;65.20;98054.88;436525;1247;97976;-41
2023/04/11 10:25:20;;;;;;;10.90;6.80;;;;;;;15.00;63.42;98045.04;436480;1247;111710;-40
2023/04/11 10:35:28;;;;;;;10.30;6.30;;;;;;;15.30;61.94;98023.34;436470;1251;107763;-41
2023/04/11 10:45:38;;;;;;;10.10;6.80;;;;;;;15.46;60.85;98010.56;436473;1251;98725;-40
2023/04/11 10:55:46;;;;;;;11.10;7.20;;;;;;;15.57;60.18;97998.30;436571;1248;106905;-41
2023/04/11 11:05:57;;;;;;;12.30;8.00;;;;;;;15.51;59.89;97986.48;436355;1251;98846;-41
2023/04/11 11:26:11;;;;;;;11.00;8.00;;;;;;;15.76;57.47;97971.38;436206;1250;108249;-40
2023/04/11 11:36:18;;;;;;;11.40;8.10;;;;;;;15.89;56.71;97963.05;436170;1251;99211;-41
2023/04/11 11:46:24;;;;;;;10.90;7.40;;;;;;;16.23;57.32;97966.94;436158;1261;107064;-42
2023/04/11 11:56:32;;;;;;;9.10;7.00;;;;;;;16.37;56.74;97953.24;436201;1251;98818;-42
2023/04/11 12:16:44;;;;;;;8.60;6.10;;;;;;;15.99;51.90;97949.20;436123;1253;107802;-41
2023/04/11 12:26:51;;;;;;;10.00;5.90;;;;;;;16.01;53.10;97948.42;436137;1248;99321;-41
2023/04/11 12:37:13;;;;;;;10.50;7.80;;;;;;;16.12;53.44;97935.27;435989;1253;108192;-41
2023/04/11 12:47:20;;;;;;;9.20;7.80;;;;;;;16.42;53.74;97926.58;435958;1253;99282;-41
2023/04/11 13:17:40;;;;;;;13.00;8.10;;;;;;;16.09;52.39;97899.49;436088;1250;99343;-41
2023/04/11 13:27:46;;;;;;;12.50;9.10;;;;;;;15.77;52.86;97891.39;436146;1254;108282;-40
2023/04/11 13:37:53;;;;;;;11.70;8.90;;;;;;;15.67;52.76;97885.69;435918;1254;97985;-40
2023/04/11 13:48:00;;;;;;;10.80;8.20;;;;;;;15.76;51.79;97877.27;436076;1254;112473;-41
2023/04/11 13:58:08;;;;;;;10.50;8.30;;;;;;;15.65;52.12;97867.25;436032;1253;108193;-40
2023/04/11 14:08:15;;;;;;;15.00;9.90;;;;;;;15.41;52.74;97860.40;436091;1253;99245;-41
2023/04/11 14:18:22;;;;;;;12.80;9.30;;;;;;;15.23;53.48;97852.71;435989;1248;107669;-39
2023/04/11 14:28:30;;;;;;;15.10;11.40;;;;;;;15.10;53.87;97842.84;435925;1251;99314;-41
2023/04/11 14:38:38;;;;;;;18.50;12.40;;;;;;;15.05;54.37;97842.30;436071;1252;109709;-41
2023/04/11 14:48:45;;;;;;;17.10;13.10;;;;;;;14.88;54.35;97838.53;436019;1253;108124;-43
2023/04/11 14:58:53;;;;;;;19.20;12.60;;;;;;;14.82;55.13;97837.55;436291;1248;99066;-41
2023/04/11 15:09:01;;;;;;;21.10;14.40;;;;;;;14.71;55.89;97834.02;436108;1253;109381;-41
2023/04/11 15:39:21;;;;;;;24.60;16.50;;;;;;;12.52;58.69;97870.92;436078;1250;108480;-40
2023/04/11 15:49:29;;;;;;;22.10;15.70;;;;;;;11.75;61.29;97887.02;435647;1253;484137;-41
2023/04/11 15:59:36;;;;;;;21.90;14.30;;;;;;;11.27;62.93;97893.48;435883;1253;107164;-43
2023/04/11 16:09:43;;;;;;;23.30;15.20;;;;;;;10.97;64.17;97900.83;435833;1252;98822;-41
2023/04/11 16:19:52;;;;;;;21.30;14.00;;;;;;;10.53;66.21;97911.66;435812;1253;111594;-42
2023/04/11 16:40:09;;;;;;;13.20;9.80;;;;;;;9.72;67.42;97938.42;435839;1253;98810;-42
2023/04/11 16:50:17;;;;;;;46.10;22.90;;;;;;;9.31;68.46;97939.55;435959;1250;111366;-39
2023/04/11 17:00:23;;;;;;;23.20;9.50;;;;;;;8.86;69.31;97946.98;435793;1248;108540;-41
2023/04/11 17:10:30;;;;;;;22.90;11.90;;;;;;;8.48;70.35;97960.81;435965;1252;99345;-40
2023/04/11 17:20:37;;;;;;;6.80;4.00;;;;;;;8.17;71.45;97960.45;435929;1248;107229;-40
2023/04/11 17:30:45;;;;;;;6.90;4.20;;;;;;;7.99;72.01;97958.20;435957;1250;99211;-41
2023/04/11 17:40:52;;;;;;;8.70;4.10;;;;;;;7.73;73.16;97965.67;435968;1253;110253;-40
2023/04/11 17:51:09;;;;;;;5.50;3.10;;;;;;;7.56;73.82;97985.20;435856;1251;108334;-40
2023/04/11 18:01:16;;;;;;;9.00;5.60;;;;;;;7.44;74.48;97989.80;435689;1250;99868;-41
2023/04/11 18:11:24;;;;;;;10.20;5.90;;;;;;;7.23;76.28;97985.00;435805;1253;109413;-39
2023/04/11 18:21:31;;;;;;;6.70;4.50;;;;;;;7.16;76.49;98001.89;435901;1252;100307;-41
2023/04/11 18:31:38;;;;;;;8.10;5.20;;;;;;;7.12;76.72;98016.47;436087;1247;111854;-41
2023/04/11 18:41:46;;;;;;;10.00;5.50;;;;;;;7.11;77.34;98010.26;436025;1248;106478;-40
2023/04/11 18:51:54;;;;;;;11.50;6.20;;;;;;;7.10;77.66;98031.25;436081;1253;97919;-41
2023/04/11 19:02:02;;;;;;;8.40;6.60;;;;;;;7.17;77.58;98036.27;435962;1250;108733;-41
2023/04/11 19:12:14;;;;;;;7.30;5.50;;;;;;;7.18;77.63;98042.14;436175;1251;99265;-41
2023/04/11 19:22:21;;;;;;;7.70;5.00;;;;;;;7.23;77.76;98046.62;435994;1250;112754;-41
2023/04/11 19:32:29;;;;;;;8.10;5.40;;;;;;;7.25;77.80;98045.61;435872;1248;108068;-41
2023/04/11 19:42:38;;;;;;;8.50;6.00;;;;;;;7.27;77.84;98041.46;435795;1253;99391;-42
2023/04/11 19:52:46;;;;;;;9.90;7.80;;;;;;;7.33;78.07;98044.80;435697;1253;107472;-41
2023/04/11 20:02:53;;;;;;;18.60;11.30;;;;;;;7.28;78.14;98043.60;435638;1253;101518;-41
2023/04/11 20:13:01;;;;;;;17.20;10.60;;;;;;;7.09;79.56;98038.82;435751;1254;112063;-41
2023/04/11 20:23:07;;;;;;;14.20;9.00;;;;;;;7.04;79.49;98045.38;435668;1251;108471;-41
2023/04/11 20:33:14;;;;;;;15.80;7.60;;;;;;;7.04;79.71;98051.53;435639;1250;99243;-40
2023/04/11 20:43:22;;;;;;;9.20;7.70;;;;;;;7.07;79.98;98049.71;435679;1253;108318;-40
2023/04/11 20:53:32;;;;;;;13.10;7.50;;;;;;;7.09;79.94;98051.20;435621;1253;98820;-41
2023/04/11 21:03:41;;;;;;;13.80;8.60;;;;;;;7.07;80.35;98052.60;435624;1250;110915;-40
2023/04/11 21:13:50;;;;;;;15.10;9.30;;;;;;;7.05;80.41;98052.08;435619;1253;106975;-41
2023/04/11 21:23:57;;;;;;;16.20;8.40;;;;;;;7.06;80.41;98050.46;435721;1253;98853;-40
2023/04/11 21:34:05;;;;;;;18.00;10.60;;;;;;;7.07;80.58;98053.77;435776;1253;108334;-41
2023/04/11 21:44:12;;;;;;;19.00;11.80;;;;;;;7.01;80.84;98063.46;435677;1249;99244;-41
2023/04/11 21:54:19;;;;;;;16.20;11.10;;;;;;;6.94;80.96;98060.80;435636;1253;111638;-42
2023/04/11 22:04:27;;;;;;;17.50;10.50;;;;;;;6.91;80.78;98062.79;435463;1253;108035;-45
2023/04/11 22:14:37;;;;;;;17.40;10.80;;;;;;;6.90;80.88;98060.98;435573;1253;99209;-40
2023/04/11 22:24:45;;;;;;;19.80;12.40;;;;;;;6.95;80.98;98061.95;435553;1253;107698;-41
2023/04/11 22:34:52;;;;;;;20.00;11.60;;;;;;;6.99;81.04;98060.90;435657;1250;98024;-40
2023/04/11 22:45:00;;;;;;;20.20;12.50;;;;;;;6.98;81.23;98057.61;435616;1248;111335;-40
2023/04/11 22:55:09;;;;;;;16.00;10.90;;;;;;;6.96;81.33;98054.36;435622;1251;108889;-42
2023/04/11 23:15:22;;;;;;;13.10;9.40;;;;;;;6.86;81.79;98054.17;435934;1250;108679;-42
2023/04/11 23:25:29;;;;;;;12.40;8.50;;;;;;;6.69;82.68;98058.73;435853;1253;99247;-41
2023/04/11 23:35:37;;;;;;;11.10;6.10;;;;;;;6.44;83.09;98048.80;435684;1253;112879;-42
2023/04/11 23:45:44;;;;;;;7.70;5.30;;;;;;;6.30;83.34;98049.10;435783;1253;107618;-42
2023/04/11 23:55:52;;;;;;;5.90;4.00;;;;;;;6.24;83.78;98044.03;435721;1253;97979;-42
